createdAt,value
2018-12-27T00:00:15.604Z,24.53
2018-12-27T00:02:55.250Z,24.97
2018-12-27T00:05:29.440Z,24.97
2018-12-27T00:08:12.527Z,24.60
2018-12-27T00:10:51.246Z,24.63
2018-12-27T00:13:27.695Z,24.63
2018-12-27T00:16:01.780Z,25.60
2018-12-27T00:18:36.779Z,23.50
2018-12-27T00:21:18.065Z,25.13
2018-12-27T00:23:53.333Z,24.90
2018-12-27T00:26:33.959Z,25.10
2018-12-27T00:29:17.439Z,23.73
2018-12-27T00:31:52.760Z,24.80
2018-12-27T00:34:25.662Z,26.23
2018-12-27T00:37:01.214Z,23.60
2018-12-27T00:39:36.341Z,24.63
2018-12-27T00:42:08.920Z,23.97
2018-12-27T00:44:47.305Z,24.13
2018-12-27T00:47:24.976Z,23.97
2018-12-27T00:50:04.184Z,23.47
2018-12-27T00:52:44.753Z,23.27
2018-12-27T00:55:20.886Z,23.70
2018-12-27T00:57:59.083Z,23.93
2018-12-27T01:00:36.925Z,24.20
2018-12-27T01:03:14.105Z,24.90
2018-12-27T01:05:49.969Z,23.40
2018-12-27T01:08:30.106Z,23.10
2018-12-27T01:11:06.169Z,22.57
2018-12-27T01:13:39.350Z,23.40
2018-12-27T01:16:12.628Z,24.17
2018-12-27T01:18:49.543Z,24.20
2018-12-27T01:21:27.723Z,24.00
2018-12-27T01:24:09.889Z,22.43
2018-12-27T01:26:48.980Z,23.47
2018-12-27T01:29:26.180Z,22.47
2018-12-27T01:32:05.901Z,22.33
2018-12-27T01:34:42.172Z,22.97
2018-12-27T01:37:18.748Z,23.97
2018-12-27T01:39:56.206Z,22.47
2018-12-27T01:42:32.852Z,22.40
2018-12-27T01:45:12.915Z,22.80
2018-12-27T01:47:47.724Z,23.50
2018-12-27T01:50:24.528Z,22.50
2018-12-27T01:52:59.426Z,22.87
2018-12-27T01:55:39.523Z,22.43
2018-12-27T01:58:20.106Z,22.40
2018-12-27T02:00:58.360Z,22.43
2018-12-27T02:03:34.978Z,21.87
2018-12-27T02:06:10.081Z,22.63
2018-12-27T02:08:46.528Z,22.40
2018-12-27T02:11:23.337Z,21.73
2018-12-27T02:14:00.884Z,20.90
2018-12-27T02:16:34.281Z,20.27
2018-12-27T02:19:11.264Z,20.53
2018-12-27T02:21:46.557Z,20.73
2018-12-27T02:24:22.881Z,21.83
2018-12-27T02:27:00.455Z,21.17
2018-12-27T02:29:36.336Z,19.77
2018-12-27T02:32:16.545Z,21.00
2018-12-27T02:34:51.695Z,20.67
2018-12-27T02:37:26.028Z,20.67
2018-12-27T02:40:02.869Z,19.83
2018-12-27T02:42:44.169Z,21.53
2018-12-27T02:45:23.702Z,22.33
2018-12-27T02:48:04.813Z,19.03
2018-12-27T02:50:40.240Z,18.73
2018-12-27T02:53:17.724Z,17.20
2018-12-27T02:55:54.642Z,17.37
2018-12-27T02:58:29.679Z,16.93
2018-12-27T03:01:05.120Z,15.37
2018-12-27T03:03:43.934Z,16.20
2018-12-27T03:06:21.590Z,14.37
2018-12-27T03:08:58.690Z,15.20
2018-12-27T03:11:34.709Z,14.23
2018-12-27T03:14:13.294Z,14.47
2018-12-27T03:16:53.971Z,13.07
2018-12-27T03:19:29.485Z,13.63
2018-12-27T03:22:10.110Z,13.70
2018-12-27T03:24:47.526Z,13.70
2018-12-27T03:27:25.762Z,13.63
2018-12-27T03:30:06.144Z,14.37
2018-12-27T03:32:45.783Z,13.57
2018-12-27T03:35:26.688Z,13.50
2018-12-27T03:38:03.090Z,13.50
2018-12-27T03:40:39.847Z,13.83
2018-12-27T03:43:17.610Z,14.23
2018-12-27T03:45:53.948Z,13.67
2018-12-27T03:48:32.495Z,14.20
2018-12-27T03:51:09.686Z,14.03
2018-12-27T03:53:47.726Z,13.37
2018-12-27T03:56:28.509Z,12.47
2018-12-27T03:59:10.110Z,12.73
2018-12-27T04:01:46.665Z,13.77
2018-12-27T04:04:24.950Z,13.30
2018-12-27T04:07:01.997Z,13.30
2018-12-27T04:09:37.490Z,13.33
2018-12-27T04:12:16.617Z,12.77
2018-12-27T04:14:55.275Z,12.80
2018-12-27T04:17:37.726Z,13.20
2018-12-27T04:20:18.355Z,12.70
2018-12-27T04:22:52.499Z,12.67
2018-12-27T04:25:27.725Z,12.63
2018-12-27T04:28:06.435Z,12.63
2018-12-27T04:30:43.370Z,11.70
2018-12-27T04:33:19.881Z,12.63
2018-12-27T04:35:57.725Z,13.27
2018-12-27T04:38:31.663Z,12.70
2018-12-27T04:41:10.948Z,12.90
2018-12-27T04:43:47.726Z,12.97
2018-12-27T04:46:27.147Z,12.10
2018-12-27T04:49:07.725Z,13.00
2018-12-27T04:51:44.587Z,12.73
2018-12-27T04:54:24.118Z,12.90
2018-12-27T04:56:58.544Z,12.83
2018-12-27T04:59:32.786Z,13.23
2018-12-27T05:02:07.038Z,13.10
2018-12-27T05:04:43.358Z,13.37
2018-12-27T05:07:26.594Z,13.37
2018-12-27T05:10:03.488Z,13.90
2018-12-27T05:12:36.459Z,12.47
2018-12-27T05:15:14.731Z,15.93
2018-12-27T05:17:49.311Z,16.67
2018-12-27T05:20:26.153Z,16.53
2018-12-27T05:23:03.831Z,13.70
2018-12-27T05:25:43.238Z,14.00
2018-12-27T05:28:19.664Z,13.73
2018-12-27T05:30:58.609Z,13.10
2018-12-27T05:33:33.320Z,12.70
2018-12-27T05:36:14.264Z,11.70
2018-12-27T05:38:52.456Z,11.20
2018-12-27T05:41:29.595Z,11.63
2018-12-27T05:44:13.149Z,11.17
2018-12-27T05:46:53.571Z,11.10
2018-12-27T05:49:29.424Z,10.67
2018-12-27T05:52:04.864Z,11.13
2018-12-27T05:54:43.316Z,11.17
2018-12-27T05:57:20.111Z,11.57
2018-12-27T05:59:58.994Z,11.47
2018-12-27T06:02:40.108Z,11.43
2018-12-27T06:05:13.243Z,11.60
2018-12-27T06:07:50.601Z,11.50
2018-12-27T06:10:28.620Z,11.37
2018-12-27T06:13:08.073Z,11.50
2018-12-27T06:15:44.848Z,11.07
2018-12-27T06:18:22.539Z,11.73
2018-12-27T06:20:56.960Z,11.27
2018-12-27T06:23:35.032Z,11.77
2018-12-27T06:26:12.191Z,11.00
2018-12-27T06:28:50.030Z,11.93
2018-12-27T06:31:31.504Z,12.50
2018-12-27T06:34:07.724Z,11.80
2018-12-27T06:36:45.878Z,11.67
2018-12-27T06:39:24.140Z,11.30
2018-12-27T06:41:59.510Z,12.13
2018-12-27T06:44:40.109Z,12.20
2018-12-27T06:47:17.103Z,12.57
2018-12-27T06:49:54.107Z,13.07
2018-12-27T06:52:32.731Z,13.03
2018-12-27T06:55:12.339Z,13.23
2018-12-27T06:57:47.725Z,13.60
2018-12-27T07:00:29.375Z,14.23
2018-12-27T07:03:04.349Z,16.50
2018-12-27T07:05:44.274Z,14.47
2018-12-27T07:08:19.203Z,15.37
2018-12-27T07:11:00.779Z,14.10
2018-12-27T07:13:38.286Z,13.77
2018-12-27T07:16:14.355Z,15.07
2018-12-27T07:18:56.429Z,15.90
2018-12-27T07:21:30.423Z,14.27
2018-12-27T07:24:12.454Z,14.97
2018-12-27T07:26:51.538Z,14.97
2018-12-27T07:29:26.994Z,14.73
2018-12-27T07:32:02.618Z,15.70
2018-12-27T07:34:41.250Z,15.93
2018-12-27T07:37:21.787Z,15.47
2018-12-27T07:40:01.894Z,14.93
2018-12-27T07:42:37.726Z,14.87
2018-12-27T07:45:15.628Z,14.97
2018-12-27T07:47:49.678Z,14.23
2018-12-27T07:50:27.133Z,14.03
2018-12-27T07:53:04.529Z,13.77
2018-12-27T07:55:44.383Z,14.17
2018-12-27T07:58:23.833Z,15.77
2018-12-27T08:01:01.045Z,14.53
2018-12-27T08:03:40.108Z,13.57
2018-12-27T08:06:16.772Z,12.17
2018-12-27T08:08:55.474Z,12.90
2018-12-27T08:11:33.159Z,10.97
2018-12-27T08:14:11.253Z,11.73
2018-12-27T08:16:47.043Z,10.97
2018-12-27T08:19:24.148Z,10.10
2018-12-27T08:21:59.433Z,10.70
2018-12-27T08:24:37.725Z,10.03
2018-12-27T08:27:16.809Z,10.50
2018-12-27T08:29:49.299Z,10.47
2018-12-27T08:32:22.600Z,10.27
2018-12-27T08:35:11.118Z,10.00
2018-12-27T08:37:38.468Z,9.40
2018-12-27T08:40:11.768Z,9.40
2018-12-27T08:42:46.875Z,8.63
2018-12-27T08:45:23.594Z,8.57
2018-12-27T08:47:57.726Z,8.70
2018-12-27T08:50:37.133Z,7.77
2018-12-27T08:53:15.621Z,7.50
2018-12-27T08:55:44.398Z,7.50
2018-12-27T08:58:16.044Z,7.40
2018-12-27T09:00:50.108Z,7.17
2018-12-27T09:03:24.350Z,6.93
2018-12-27T09:06:02.392Z,7.37
2018-12-27T09:08:38.322Z,7.07
2018-12-27T09:11:12.275Z,6.87
2018-12-27T09:13:49.551Z,6.30
2018-12-27T09:16:26.948Z,5.87
2018-12-27T09:19:05.317Z,5.60
2018-12-27T09:21:41.330Z,5.50
2018-12-27T09:24:11.836Z,6.10
2018-12-27T09:26:42.972Z,5.10
2018-12-27T09:29:17.301Z,5.47
2018-12-27T09:31:55.194Z,4.73
2018-12-27T09:34:32.469Z,4.90
2018-12-27T09:37:03.956Z,5.43
2018-12-27T09:39:38.297Z,5.43
2018-12-27T09:42:08.981Z,5.37
2018-12-27T09:44:44.084Z,5.07
2018-12-27T09:47:22.550Z,5.07
2018-12-27T09:49:57.724Z,4.97
2018-12-27T09:52:35.785Z,4.93
2018-12-27T09:55:12.141Z,4.93
2018-12-27T09:57:46.088Z,4.83
2018-12-27T10:00:17.438Z,5.00
2018-12-27T10:02:52.565Z,4.93
2018-12-27T10:05:25.284Z,5.13
2018-12-27T10:07:57.588Z,4.87
2018-12-27T10:10:28.843Z,4.93
2018-12-27T10:13:02.317Z,5.60
2018-12-27T10:15:33.596Z,6.93
2018-12-27T10:18:07.408Z,6.63
2018-12-27T10:20:40.591Z,5.80
2018-12-27T10:23:14.206Z,5.63
2018-12-27T10:25:43.324Z,5.70
2018-12-27T10:28:15.361Z,5.70
2018-12-27T10:30:47.488Z,5.70
2018-12-27T10:33:24.318Z,5.77
2018-12-27T10:35:56.483Z,5.30
2018-12-27T10:38:31.565Z,6.10
2018-12-27T10:41:03.726Z,7.87
2018-12-27T10:43:39.551Z,8.07
2018-12-27T10:46:12.462Z,7.50
2018-12-27T10:48:45.746Z,6.90
2018-12-27T10:51:18.043Z,6.20
2018-12-27T10:53:51.731Z,6.10
2018-12-27T10:56:21.154Z,5.60
2018-12-27T10:58:54.399Z,5.53
2018-12-27T11:01:25.587Z,6.17
2018-12-27T11:03:59.012Z,5.80
2018-12-27T11:06:36.275Z,5.57
2018-12-27T11:09:10.024Z,5.63
2018-12-27T11:11:43.725Z,6.07
2018-12-27T11:14:17.572Z,6.33
2018-12-27T11:16:52.310Z,5.70
2018-12-27T11:19:24.104Z,5.60
2018-12-27T11:21:58.868Z,7.07
2018-12-27T11:24:27.632Z,6.20
2018-12-27T11:26:58.355Z,6.07
2018-12-27T11:29:29.476Z,6.60
2018-12-27T11:31:59.429Z,6.60
2018-12-27T11:34:33.119Z,6.73
2018-12-27T11:37:02.402Z,6.40
2018-12-27T11:39:31.359Z,6.87
2018-12-27T11:42:01.085Z,6.93
2018-12-27T11:44:32.883Z,5.87
2018-12-27T11:47:08.758Z,5.33
2018-12-27T11:49:43.724Z,5.60
2018-12-27T11:52:25.203Z,4.60
2018-12-27T11:55:02.220Z,4.00
2018-12-27T11:57:37.026Z,3.70
2018-12-27T12:00:10.049Z,3.30
2018-12-27T12:02:51.121Z,3.60
2018-12-27T12:05:24.820Z,3.50
2018-12-27T12:07:58.570Z,3.60
2018-12-27T12:10:32.372Z,4.47
2018-12-27T12:13:01.410Z,4.50
2018-12-27T12:15:30.522Z,3.97
2018-12-27T12:18:03.726Z,3.90
2018-12-27T12:20:33.575Z,4.10
2018-12-27T12:23:06.349Z,3.83
2018-12-27T12:25:39.578Z,3.60
2018-12-27T12:28:14.291Z,3.80
2018-12-27T12:30:44.646Z,4.47
2018-12-27T12:33:18.213Z,4.33
2018-12-27T12:35:52.274Z,5.00
2018-12-27T12:38:22.260Z,7.83
2018-12-27T12:40:58.293Z,8.30
2018-12-27T12:43:34.475Z,7.77
2018-12-27T12:46:12.933Z,9.07
2018-12-27T12:48:48.784Z,7.57
2018-12-27T12:51:26.108Z,7.20
2018-12-27T12:54:03.726Z,7.33
2018-12-27T12:56:33.136Z,7.73
2018-12-27T12:59:09.145Z,8.77
2018-12-27T13:01:45.358Z,8.27
2018-12-27T13:04:18.532Z,9.00
2018-12-27T13:06:53.729Z,8.97
2018-12-27T13:09:32.097Z,8.87
2018-12-27T13:12:04.757Z,8.60
2018-12-27T13:14:36.769Z,8.30
2018-12-27T13:17:10.392Z,9.00
2018-12-27T13:19:46.115Z,9.00
2018-12-27T13:22:16.090Z,8.73
2018-12-27T13:24:53.616Z,8.97
2018-12-27T13:27:22.482Z,8.73
2018-12-27T13:30:01.774Z,8.80
2018-12-27T13:32:28.921Z,8.93
2018-12-27T13:35:03.727Z,8.70
2018-12-27T13:37:37.273Z,9.17
2018-12-27T13:40:19.218Z,10.33
2018-12-27T13:42:54.845Z,9.90
2018-12-27T13:45:32.348Z,9.97
2018-12-27T13:48:06.280Z,9.87
2018-12-27T13:50:40.070Z,131.00
2018-12-27T13:53:18.431Z,15.73
2018-12-27T13:55:53.727Z,24.33
2018-12-27T13:58:26.461Z,11.10
2018-12-27T14:00:58.096Z,12.00
2018-12-27T14:03:34.931Z,10.70
2018-12-27T14:06:10.890Z,11.03
2018-12-27T14:08:46.186Z,11.43
2018-12-27T14:11:23.726Z,11.50
2018-12-27T14:14:03.727Z,11.77
2018-12-27T14:16:34.766Z,11.93
2018-12-27T14:19:11.024Z,11.43
2018-12-27T14:21:46.977Z,12.67
2018-12-27T14:24:23.360Z,11.90
2018-12-27T14:26:52.825Z,11.70
2018-12-27T14:29:28.492Z,12.20
2018-12-27T14:32:02.704Z,11.40
2018-12-27T14:34:35.660Z,12.30
2018-12-27T14:37:14.782Z,11.80
2018-12-27T14:39:50.623Z,12.53
2018-12-27T14:42:27.046Z,12.70
2018-12-27T14:44:56.192Z,12.80
2018-12-27T14:47:30.012Z,13.10
2018-12-27T14:50:06.833Z,13.10
2018-12-27T14:52:38.376Z,13.57
2018-12-27T14:55:21.043Z,14.60
2018-12-27T14:57:50.535Z,14.37
2018-12-27T15:00:30.298Z,14.03
2018-12-27T15:03:00.857Z,14.00
2018-12-27T15:05:37.491Z,14.00
2018-12-27T15:08:08.103Z,15.17
2018-12-27T15:10:43.725Z,14.90
2018-12-27T15:13:20.260Z,15.13
2018-12-27T15:15:53.793Z,16.50
2018-12-27T15:18:24.448Z,17.63
2018-12-27T15:20:59.198Z,14.57
2018-12-27T15:23:31.516Z,15.60
2018-12-27T15:26:05.381Z,15.30
2018-12-27T15:28:38.277Z,15.60
2018-12-27T15:31:07.814Z,16.07
2018-12-27T15:33:40.702Z,16.47
2018-12-27T15:36:16.291Z,15.33
2018-12-27T15:38:53.340Z,16.77
2018-12-27T15:41:28.047Z,16.47
2018-12-27T15:44:03.693Z,16.17
2018-12-27T15:46:43.501Z,16.43
2018-12-27T15:49:17.125Z,17.90
2018-12-27T15:51:54.404Z,16.57
2018-12-27T15:54:28.071Z,16.97
2018-12-27T15:57:04.422Z,18.70
2018-12-27T15:59:36.880Z,18.20
2018-12-27T16:02:13.299Z,17.83
2018-12-27T16:04:49.211Z,17.80
2018-12-27T16:07:23.887Z,18.00
2018-12-27T16:09:54.269Z,18.70
2018-12-27T16:12:30.223Z,18.27
2018-12-27T16:15:04.337Z,18.73
2018-12-27T16:17:38.163Z,22.13
2018-12-27T16:20:15.347Z,23.87
2018-12-27T16:22:47.310Z,24.03
2018-12-27T16:25:22.732Z,23.03
2018-12-27T16:27:52.129Z,20.50
2018-12-27T16:30:30.868Z,20.47
2018-12-27T16:33:05.772Z,19.63
2018-12-27T16:35:43.824Z,19.73
2018-12-27T16:38:22.785Z,18.70
2018-12-27T16:40:59.122Z,19.50
2018-12-27T16:43:34.893Z,19.93
2018-12-27T16:46:04.393Z,19.67
2018-12-27T16:48:36.809Z,20.17
2018-12-27T16:51:14.258Z,21.40
2018-12-27T16:53:49.903Z,21.27
2018-12-27T16:56:23.726Z,20.40
2018-12-27T16:58:53.049Z,20.77
2018-12-27T17:01:22.513Z,20.07
2018-12-27T17:03:54.502Z,20.33
2018-12-27T17:06:27.361Z,19.63
2018-12-27T17:08:58.110Z,20.53
2018-12-27T17:11:31.471Z,20.83
2018-12-27T17:14:04.014Z,19.40
2018-12-27T17:16:36.685Z,21.67
2018-12-27T17:19:09.155Z,21.47
2018-12-27T17:21:41.576Z,21.63
2018-12-27T17:24:16.240Z,21.13
2018-12-27T17:26:51.441Z,21.40
2018-12-27T17:29:31.116Z,21.10
2018-12-27T17:32:09.077Z,21.07
2018-12-27T17:34:46.324Z,20.93
2018-12-27T17:37:23.400Z,20.67
2018-12-27T17:40:02.475Z,20.90
2018-12-27T17:42:36.205Z,21.10
2018-12-27T17:45:07.579Z,21.33
2018-12-27T17:47:40.282Z,20.97
2018-12-27T17:50:13.209Z,22.07
2018-12-27T17:52:47.132Z,21.17
2018-12-27T17:55:16.539Z,20.97
2018-12-27T17:57:50.541Z,21.57
2018-12-27T18:00:23.322Z,21.17
2018-12-27T18:02:54.967Z,21.17
2018-12-27T18:05:24.796Z,21.30
2018-12-27T18:07:59.428Z,19.77
2018-12-27T18:10:31.287Z,20.43
2018-12-27T18:13:04.337Z,20.17
2018-12-27T18:15:34.926Z,20.90
2018-12-27T18:18:09.844Z,20.67
2018-12-27T18:20:43.726Z,21.37
2018-12-27T18:23:17.449Z,22.00
2018-12-27T18:25:52.227Z,21.67
2018-12-27T18:28:28.171Z,20.57
2018-12-27T18:31:02.170Z,21.73
2018-12-27T18:33:35.439Z,21.70
2018-12-27T18:36:10.634Z,20.73
2018-12-27T18:38:45.271Z,21.73
2018-12-27T18:41:20.957Z,21.23
2018-12-27T18:43:58.405Z,21.33
2018-12-27T18:46:33.134Z,22.00
2018-12-27T18:49:08.236Z,21.50
2018-12-27T18:51:41.573Z,21.33
2018-12-27T18:54:17.616Z,20.97
2018-12-27T18:56:50.855Z,22.10
2018-12-27T18:59:19.874Z,21.73
2018-12-27T19:01:51.887Z,22.13
2018-12-27T19:04:26.694Z,22.70
2018-12-27T19:07:03.210Z,23.23
2018-12-27T19:09:37.807Z,23.83
2018-12-27T19:12:44.348Z,23.63
2018-12-27T19:15:20.935Z,23.47
2018-12-27T19:17:58.043Z,23.63
2018-12-27T19:20:33.428Z,24.23
2018-12-27T19:23:11.036Z,24.23
2018-12-27T19:25:47.113Z,23.07
2018-12-27T19:28:19.848Z,23.60
2018-12-27T19:30:53.726Z,21.90
2018-12-27T19:33:25.677Z,22.70
2018-12-27T19:36:00.121Z,22.70
2018-12-27T19:38:35.056Z,24.03
2018-12-27T19:41:05.743Z,22.73
2018-12-27T19:43:41.060Z,22.57
2018-12-27T19:46:16.453Z,23.23
2018-12-27T19:48:53.726Z,22.27
2018-12-27T19:51:28.312Z,22.43
2018-12-27T19:54:02.470Z,24.37
2018-12-27T19:56:35.314Z,23.77
2018-12-27T19:59:08.671Z,23.37
2018-12-27T20:01:45.112Z,22.43
2018-12-27T20:04:21.399Z,22.57
2018-12-27T20:06:54.270Z,22.13
2018-12-27T20:09:27.809Z,23.60
2018-12-27T20:11:59.520Z,23.40
2018-12-27T20:14:34.048Z,24.07
2018-12-27T20:17:04.646Z,23.37
2018-12-27T20:19:34.668Z,24.57
2018-12-27T20:22:06.898Z,24.07
2018-12-27T20:24:39.457Z,23.80
2018-12-27T20:27:12.824Z,25.33
2018-12-27T20:29:42.322Z,25.97
2018-12-27T20:32:18.602Z,25.77
2018-12-27T20:34:52.591Z,26.60
2018-12-27T20:37:28.595Z,25.53
2018-12-27T20:39:59.551Z,24.27
2018-12-27T20:42:30.194Z,24.27
2018-12-27T20:45:04.397Z,23.77
2018-12-27T20:47:37.080Z,23.83
2018-12-27T20:50:12.499Z,24.60
2018-12-27T20:52:45.155Z,23.70
2018-12-27T20:55:18.765Z,23.00
2018-12-27T20:57:53.726Z,23.93
2018-12-27T21:00:23.051Z,22.17
2018-12-27T21:02:58.490Z,22.50
2018-12-27T21:05:28.928Z,22.60
2018-12-27T21:08:00.645Z,23.17
2018-12-27T21:10:33.640Z,22.43
2018-12-27T21:13:10.759Z,21.60
2018-12-27T21:15:40.589Z,22.00
2018-12-27T21:18:13.726Z,22.10
2018-12-27T21:20:46.487Z,22.03
2018-12-27T21:23:19.145Z,21.73
2018-12-27T21:25:51.852Z,22.47
2018-12-27T21:28:23.726Z,22.20
2018-12-27T21:30:52.949Z,22.50
2018-12-27T21:33:26.808Z,21.90
2018-12-27T21:36:00.267Z,21.67
2018-12-27T21:38:32.557Z,22.87
2018-12-27T21:41:05.116Z,21.40
2018-12-27T21:43:37.313Z,21.90
2018-12-27T21:46:09.836Z,21.30
2018-12-27T21:48:44.011Z,22.40
2018-12-27T21:51:14.961Z,23.40
2018-12-27T21:53:43.697Z,22.33
2018-12-27T21:56:18.063Z,22.43
2018-12-27T21:58:56.109Z,23.00
2018-12-27T22:01:26.740Z,21.20
2018-12-27T22:03:59.695Z,21.07
2018-12-27T22:06:28.976Z,20.57
2018-12-27T22:09:00.811Z,19.90
2018-12-27T22:11:34.731Z,18.73
2018-12-27T22:14:04.571Z,18.33
2018-12-27T22:16:38.539Z,18.90
2018-12-27T22:19:08.144Z,17.17
2018-12-27T22:21:43.467Z,18.07
2018-12-27T22:24:17.243Z,17.00
2018-12-27T22:26:55.953Z,15.73
2018-12-27T22:29:31.199Z,15.70
2018-12-27T22:32:02.638Z,14.33
2018-12-27T22:34:32.283Z,13.97
2018-12-27T22:37:03.727Z,13.70
2018-12-27T22:39:39.858Z,13.90
2018-12-27T22:42:14.682Z,12.90
2018-12-27T22:44:48.205Z,12.30
2018-12-27T22:47:22.528Z,11.70
2018-12-27T22:49:55.497Z,11.57
2018-12-27T22:52:32.546Z,11.43
2018-12-27T22:55:07.168Z,10.57
2018-12-27T22:57:38.046Z,10.97
2018-12-27T23:00:15.571Z,11.23
2018-12-27T23:02:52.631Z,10.67
2018-12-27T23:05:29.022Z,10.80
2018-12-27T23:08:06.110Z,11.00
2018-12-27T23:10:40.995Z,11.73
2018-12-27T23:13:13.727Z,11.60
2018-12-27T23:15:45.882Z,10.30
2018-12-27T23:18:20.363Z,10.03
2018-12-27T23:20:56.311Z,10.07
2018-12-27T23:23:30.043Z,10.10
2018-12-27T23:25:58.726Z,10.33
2018-12-27T23:28:36.110Z,9.90
2018-12-27T23:31:04.521Z,10.43
2018-12-27T23:33:35.929Z,10.37
2018-12-27T23:36:08.675Z,10.10
2018-12-27T23:38:37.346Z,10.20
2018-12-27T23:41:05.949Z,10.30
2018-12-27T23:43:45.795Z,9.93
2018-12-27T23:46:25.482Z,9.90
2018-12-27T23:49:01.386Z,9.60
2018-12-27T23:51:37.207Z,9.50
2018-12-27T23:54:09.434Z,9.10
2018-12-27T23:56:47.338Z,9.40
2018-12-27T23:59:26.183Z,10.47
